Time;durP1;ratioP1;P1;durP2;ratioP2;P2;SDS_P1;SDS_P2;PMS_P1;PMS_P2;Temp;Humidity;BMP_temperature;BMP_pressure;BME280_temperature;BME280_humidity;BME280_pressure;Samples;Min_cycle;Max_cycle;Signal;HPM_P1;HPM_P2
2020/12/02 00:00:46;;;;;;;33.50;18.13;;;3.00;99.90;;;;;;5064412;28;20263;-74
2020/12/02 00:03:37;;;;;;;35.67;18.58;;;2.90;99.90;;;;;;5062806;28;20278;-75
2020/12/02 00:06:25;;;;;;;28.73;15.95;;;3.00;99.90;;;;;;5063833;28;20220;-75
2020/12/02 00:09:13;;;;;;;27.70;15.80;;;3.10;99.90;;;;;;5059760;28;20208;-75
2020/12/02 00:11:59;;;;;;;25.88;15.30;;;3.10;99.90;;;;;;5065549;28;20199;-75
2020/12/02 00:14:44;;;;;;;29.77;18.80;;;3.20;99.90;;;;;;5063471;28;20262;-75
2020/12/02 00:17:29;;;;;;;25.77;15.55;;;3.20;99.90;;;;;;5067056;28;20236;-75
2020/12/02 00:20:15;;;;;;;26.73;15.43;;;3.20;99.90;;;;;;5064762;28;20208;-75
2020/12/02 00:23:00;;;;;;;24.35;13.20;;;3.10;99.90;;;;;;5067313;28;20219;-75
2020/12/02 00:25:45;;;;;;;22.75;14.30;;;3.10;99.90;;;;;;5065720;28;20333;-75
2020/12/02 00:28:30;;;;;;;25.88;15.70;;;3.20;99.90;;;;;;5061953;28;20232;-74
2020/12/02 00:31:17;;;;;;;30.05;16.80;;;3.20;99.90;;;;;;5060718;28;20219;-75
2020/12/02 00:34:02;;;;;;;23.02;14.45;;;3.20;99.90;;;;;;5068491;28;20231;-75
2020/12/02 00:36:48;;;;;;;24.85;14.80;;;3.20;99.90;;;;;;5070844;28;20275;-74
2020/12/02 00:39:33;;;;;;;24.52;13.57;;;3.20;99.90;;;;;;5060704;28;20781;-75
2020/12/02 00:42:19;;;;;;;25.95;16.60;;;3.20;99.90;;;;;;5070257;28;20284;-74
2020/12/02 00:45:06;;;;;;;28.50;15.85;;;3.20;99.90;;;;;;5067599;28;20323;-75
2020/12/02 00:47:51;;;;;;;29.45;17.42;;;3.20;99.90;;;;;;5067041;28;20273;-75
2020/12/02 00:50:36;;;;;;;28.13;16.10;;;3.30;99.90;;;;;;5063638;28;20207;-75
2020/12/02 00:53:24;;;;;;;34.72;16.83;;;3.40;99.90;;;;;;5068632;28;20351;-75
2020/12/02 00:56:12;;;;;;;37.55;18.02;;;3.40;99.90;;;;;;5069759;28;20308;-74
2020/12/02 00:59:05;;;;;;;39.42;19.50;;;3.40;99.90;;;;;;5064769;28;20215;-75
2020/12/02 01:02:00;;;;;;;29.40;17.88;;;3.50;99.90;;;;;;5061968;28;20301;-74
2020/12/02 01:04:46;;;;;;;30.73;18.08;;;3.40;99.90;;;;;;5062612;28;20205;-75
2020/12/02 01:07:32;;;;;;;36.97;18.40;;;3.40;99.90;;;;;;5063583;28;20232;-75
2020/12/02 01:10:18;;;;;;;36.60;18.52;;;3.40;99.90;;;;;;5068694;28;20262;-75
2020/12/02 01:13:04;;;;;;;42.75;19.40;;;3.40;99.90;;;;;;5067372;28;20562;-75
2020/12/02 01:15:50;;;;;;;31.90;18.83;;;3.50;99.90;;;;;;5069410;28;20204;-75
2020/12/02 01:18:35;;;;;;;32.55;18.55;;;3.60;99.90;;;;;;5064112;28;20266;-75
2020/12/02 01:21:30;;;;;;;39.45;20.08;;;3.50;99.90;;;;;;5075209;28;20203;-74
2020/12/02 01:24:20;;;;;;;28.45;17.20;;;3.50;99.90;;;;;;5064885;28;20200;-75
2020/12/02 01:27:13;;;;;;;31.67;17.40;;;3.50;99.90;;;;;;5068992;28;20231;-75
2020/12/02 01:29:58;;;;;;;33.58;17.88;;;3.50;99.90;;;;;;5057461;28;20282;-74
2020/12/02 01:32:45;;;;;;;30.88;17.23;;;3.50;99.90;;;;;;5066061;28;20230;-74
2020/12/02 01:35:32;;;;;;;29.83;16.35;;;3.50;99.90;;;;;;5059726;28;20224;-74
2020/12/02 01:38:22;;;;;;;30.15;17.27;;;3.40;99.90;;;;;;5067481;28;20758;-74
2020/12/02 01:41:10;;;;;;;32.53;17.02;;;3.40;99.90;;;;;;5059763;28;20208;-75
2020/12/02 01:43:56;;;;;;;33.75;18.63;;;3.40;99.90;;;;;;5059709;28;20274;-75
2020/12/02 01:46:53;;;;;;;35.40;18.65;;;3.50;99.90;;;;;;5064171;28;20248;-75
2020/12/02 01:49:47;;;;;;;30.88;17.70;;;3.40;99.90;;;;;;5063354;28;20257;-75
2020/12/02 01:52:54;;;;;;;30.25;17.30;;;3.30;99.90;;;;;;5069446;28;20204;-74
2020/12/02 01:55:43;;;;;;;28.52;15.88;;;3.50;99.90;;;;;;5063780;28;20204;-75
2020/12/02 01:58:37;;;;;;;33.45;18.48;;;3.50;99.90;;;;;;5068288;28;20650;-75
2020/12/02 02:01:38;;;;;;;32.78;17.55;;;3.40;99.90;;;;;;5060998;28;20250;-75
2020/12/02 02:04:32;;;;;;;30.58;15.82;;;3.40;99.90;;;;;;5068632;28;20198;-75
2020/12/02 02:07:20;;;;;;;37.35;17.92;;;3.30;99.90;;;;;;5058968;28;20797;-75
2020/12/02 02:10:14;;;;;;;30.60;17.13;;;3.20;99.90;;;;;;5052149;28;20258;-75
2020/12/02 02:13:22;;;;;;;28.52;15.80;;;3.20;99.90;;;;;;5074203;28;20319;-74
2020/12/02 02:16:11;;;;;;;30.63;15.48;;;3.10;99.90;;;;;;5053954;28;20290;-74
2020/12/02 02:18:58;;;;;;;32.60;17.02;;;3.20;99.90;;;;;;5074628;28;20204;-74
2020/12/02 02:21:43;;;;;;;30.63;16.60;;;3.20;99.90;;;;;;5067486;28;20553;-74
2020/12/02 02:24:28;;;;;;;34.40;16.50;;;3.00;99.90;;;;;;5058469;28;20208;-75
2020/12/02 02:27:15;;;;;;;27.48;16.10;;;3.00;99.90;;;;;;5061502;28;20322;-75
2020/12/02 02:30:00;;;;;;;32.55;17.42;;;3.10;99.90;;;;;;5081350;28;20209;-75
2020/12/02 02:32:47;;;;;;;29.88;16.20;;;3.00;99.90;;;;;;5069764;28;20224;-74
2020/12/02 02:35:33;;;;;;;28.45;15.82;;;2.80;99.90;;;;;;5059445;28;20204;-75
2020/12/02 02:38:21;;;;;;;27.33;15.57;;;2.80;99.90;;;;;;5063383;28;20195;-75
2020/12/02 02:41:07;;;;;;;29.83;15.98;;;2.90;99.90;;;;;;5056529;28;20267;-75
2020/12/02 02:43:55;;;;;;;26.23;15.90;;;2.90;99.90;;;;;;5078323;28;20207;-74
2020/12/02 02:46:40;;;;;;;33.20;15.85;;;2.90;99.90;;;;;;5072049;28;20301;-75
2020/12/02 02:49:26;;;;;;;27.67;15.77;;;2.90;99.90;;;;;;5069086;28;20575;-75
2020/12/02 02:52:11;;;;;;;30.98;16.23;;;2.90;99.90;;;;;;5071815;28;20727;-75
2020/12/02 02:54:56;;;;;;;29.75;16.13;;;2.90;99.90;;;;;;5062647;28;20250;-75
2020/12/02 02:57:42;;;;;;;30.05;17.02;;;2.80;99.90;;;;;;5074181;28;20228;-74
2020/12/02 03:00:31;;;;;;;33.40;17.90;;;2.80;99.90;;;;;;5070829;28;20228;-74
2020/12/02 03:03:18;;;;;;;32.20;18.60;;;2.90;99.90;;;;;;5071404;28;20222;-75
2020/12/02 03:06:04;;;;;;;31.40;18.55;;;3.00;99.90;;;;;;5067489;28;20298;-74
2020/12/02 03:08:51;;;;;;;26.27;16.25;;;3.00;99.90;;;;;;5067537;28;20200;-75
2020/12/02 03:11:37;;;;;;;30.23;15.25;;;3.00;99.90;;;;;;5073951;28;20282;-74
2020/12/02 03:14:22;;;;;;;25.35;16.15;;;3.10;99.90;;;;;;5064742;28;20709;-75
2020/12/02 03:17:13;;;;;;;31.35;17.42;;;3.10;99.90;;;;;;5066700;28;20613;-74
2020/12/02 03:20:05;;;;;;;30.85;17.25;;;3.10;99.90;;;;;;5066562;28;20711;-75
2020/12/02 03:22:50;;;;;;;26.58;17.30;;;3.10;99.90;;;;;;5077019;28;20268;-74
2020/12/02 03:25:35;;;;;;;31.88;18.00;;;3.20;99.90;;;;;;5067687;28;20694;-75
2020/12/02 03:28:27;;;;;;;37.53;19.40;;;3.20;99.90;;;;;;5069635;28;20220;-74
2020/12/02 03:31:15;;;;;;;36.85;18.55;;;3.20;99.90;;;;;;5065872;28;20216;-74
2020/12/02 03:34:02;;;;;;;31.98;18.45;;;3.20;99.90;;;;;;5068289;28;20234;-74
2020/12/02 03:36:47;;;;;;;34.10;17.83;;;3.20;99.90;;;;;;5069486;28;20805;-75
2020/12/02 03:39:33;;;;;;;31.85;18.52;;;3.20;99.90;;;;;;5071865;28;20204;-75
2020/12/02 03:42:17;;;;;;;34.95;18.33;;;3.20;99.90;;;;;;5069582;28;20200;-74
2020/12/02 03:45:03;;;;;;;35.70;20.83;;;3.20;99.90;;;;;;5069586;28;20253;-74
2020/12/02 03:47:49;;;;;;;36.55;19.92;;;3.30;99.90;;;;;;5062513;28;20216;-74
2020/12/02 03:50:35;;;;;;;39.20;21.40;;;3.30;99.90;;;;;;5071206;28;20216;-74
2020/12/02 03:53:20;;;;;;;37.38;22.20;;;3.30;99.90;;;;;;5062460;28;20579;-74
2020/12/02 03:56:05;;;;;;;35.45;21.60;;;3.30;99.90;;;;;;5065933;28;20227;-74
2020/12/02 03:58:50;;;;;;;38.03;21.05;;;3.40;99.90;;;;;;5066666;28;20207;-75
2020/12/02 04:01:35;;;;;;;34.50;21.38;;;3.50;99.90;;;;;;5063763;28;20239;-74
2020/12/02 04:04:20;;;;;;;36.88;20.05;;;3.50;99.90;;;;;;5063645;28;20196;-75
2020/12/02 04:07:06;;;;;;;35.35;20.50;;;3.40;99.90;;;;;;5055054;28;20269;-75
2020/12/02 04:09:51;;;;;;;34.70;19.77;;;3.40;99.90;;;;;;5067322;28;20578;-75
2020/12/02 04:12:36;;;;;;;34.60;20.42;;;3.50;99.90;;;;;;5063918;28;20267;-75
2020/12/02 04:15:22;;;;;;;29.02;16.90;;;3.50;99.90;;;;;;5065034;28;20209;-75
2020/12/02 04:18:07;;;;;;;37.65;21.00;;;3.40;99.90;;;;;;5066795;28;20685;-74
2020/12/02 04:20:52;;;;;;;33.72;19.23;;;3.30;99.90;;;;;;5069540;28;20721;-74
2020/12/02 04:23:39;;;;;;;40.78;21.42;;;3.30;99.90;;;;;;5072675;28;20206;-74
2020/12/02 04:26:25;;;;;;;35.88;21.10;;;3.40;99.90;;;;;;5062623;28;20243;-75
2020/12/02 04:29:10;;;;;;;38.35;21.88;;;3.40;99.90;;;;;;5067705;28;20690;-74
2020/12/02 04:31:56;;;;;;;41.85;22.33;;;3.50;99.90;;;;;;5062471;28;20278;-75
2020/12/02 04:34:41;;;;;;;40.42;22.95;;;3.50;99.90;;;;;;5054964;28;20236;-75
2020/12/02 04:37:26;;;;;;;38.30;21.95;;;3.50;99.90;;;;;;5061438;28;20812;-74
2020/12/02 04:40:20;;;;;;;39.08;22.92;;;3.50;99.90;;;;;;5058510;28;20725;-75
2020/12/02 04:43:14;;;;;;;41.40;22.08;;;3.40;99.90;;;;;;5071919;28;20274;-74
2020/12/02 04:45:59;;;;;;;33.95;20.38;;;3.30;99.90;;;;;;5065636;28;20203;-75
2020/12/02 04:48:49;;;;;;;43.92;24.15;;;3.30;99.90;;;;;;5058866;28;20203;-74
2020/12/02 04:51:34;;;;;;;37.95;22.63;;;3.30;99.90;;;;;;5060726;28;20246;-75
2020/12/02 04:54:19;;;;;;;34.72;20.92;;;3.20;99.90;;;;;;5059787;28;20348;-75
2020/12/02 04:57:06;;;;;;;38.70;22.30;;;3.20;99.90;;;;;;5062600;28;20401;-75
2020/12/02 04:59:51;;;;;;;39.17;22.80;;;3.20;99.90;;;;;;5059537;28;20212;-75
2020/12/02 05:02:36;;;;;;;36.35;21.42;;;3.20;99.90;;;;;;5066838;28;20203;-75
2020/12/02 05:05:21;;;;;;;32.33;17.67;;;3.10;99.90;;;;;;5060412;28;20212;-75
2020/12/02 05:08:18;;;;;;;28.45;17.88;;;3.10;99.90;;;;;;5058477;28;20200;-74
2020/12/02 05:11:09;;;;;;;36.22;20.67;;;3.00;99.90;;;;;;5055284;28;20215;-75
2020/12/02 05:14:00;;;;;;;30.73;19.15;;;3.00;99.90;;;;;;5069332;28;20228;-75
2020/12/02 05:16:45;;;;;;;31.70;19.00;;;3.10;99.90;;;;;;5061575;28;20224;-74
2020/12/02 05:19:30;;;;;;;30.27;18.27;;;3.20;99.90;;;;;;5057033;28;20204;-74
2020/12/02 05:22:17;;;;;;;33.42;18.00;;;3.20;99.90;;;;;;5060571;28;20297;-74
2020/12/02 05:25:03;;;;;;;31.23;17.77;;;3.20;99.90;;;;;;5072973;28;20338;-75
2020/12/02 05:28:02;;;;;;;31.13;18.83;;;3.20;99.90;;;;;;5067090;28;20235;-75
2020/12/02 05:30:48;;;;;;;29.73;18.48;;;3.20;99.90;;;;;;5060735;28;20254;-75
2020/12/02 05:33:34;;;;;;;32.58;18.38;;;3.20;99.90;;;;;;5057273;28;20220;-75
2020/12/02 05:36:24;;;;;;;25.40;14.68;;;3.20;99.90;;;;;;5063711;28;20346;-75
2020/12/02 05:39:17;;;;;;;26.38;15.80;;;3.30;99.90;;;;;;5059924;28;20200;-74
2020/12/02 05:42:11;;;;;;;22.65;14.93;;;3.40;99.90;;;;;;5064459;28;20223;-75
2020/12/02 05:45:01;;;;;;;25.70;16.98;;;3.40;99.90;;;;;;5061863;28;20193;-75
2020/12/02 05:47:50;;;;;;;24.52;15.85;;;3.40;99.90;;;;;;5064705;28;20227;-73
2020/12/02 05:50:35;;;;;;;24.77;14.02;;;3.40;99.90;;;;;;5069034;28;20199;-75
2020/12/02 05:53:28;;;;;;;16.30;10.75;;;3.40;99.90;;;;;;5063085;28;20284;-75
2020/12/02 05:56:13;;;;;;;20.85;13.07;;;3.20;99.90;;;;;;5054319;28;20224;-75
2020/12/02 05:58:58;;;;;;;20.20;12.82;;;3.20;99.90;;;;;;5068579;28;20871;-74
2020/12/02 06:01:44;;;;;;;22.88;14.00;;;3.10;99.90;;;;;;5064169;28;20291;-74
2020/12/02 06:04:31;;;;;;;22.05;12.73;;;3.10;99.90;;;;;;5071250;28;20220;-74
2020/12/02 06:07:16;;;;;;;20.75;12.95;;;3.10;99.90;;;;;;5073088;28;20349;-75
2020/12/02 06:10:01;;;;;;;22.77;14.10;;;3.20;99.90;;;;;;5061974;28;20305;-75
2020/12/02 06:12:46;;;;;;;23.92;14.85;;;3.10;99.90;;;;;;5061914;28;20282;-74
2020/12/02 06:15:37;;;;;;;26.35;15.25;;;3.10;99.90;;;;;;5063610;28;20537;-74
2020/12/02 06:18:27;;;;;;;28.90;17.13;;;3.10;99.90;;;;;;5067342;28;20204;-74
2020/12/02 06:21:33;;;;;;;28.15;16.77;;;3.20;99.90;;;;;;5060593;28;20819;-74
2020/12/02 06:24:34;;;;;;;29.15;18.73;;;3.10;99.90;;;;;;5059847;28;20207;-74
2020/12/02 06:27:42;;;;;;;31.67;18.67;;;3.20;99.90;;;;;;5062107;28;20227;-74
2020/12/02 06:30:27;;;;;;;31.65;19.17;;;3.20;99.90;;;;;;5063965;28;20352;-74
2020/12/02 06:33:20;;;;;;;34.45;18.35;;;3.20;99.90;;;;;;5059543;28;20290;-74
2020/12/02 06:36:18;;;;;;;33.70;19.33;;;3.10;99.90;;;;;;5055729;28;20236;-75
2020/12/02 06:39:25;;;;;;;32.40;18.70;;;3.20;99.90;;;;;;5056663;28;20628;-74
2020/12/02 06:42:32;;;;;;;29.10;18.83;;;3.20;99.90;;;;;;5068444;28;20201;-74
2020/12/02 06:45:34;;;;;;;28.98;17.55;;;3.20;99.90;;;;;;5063602;28;20200;-74
2020/12/02 06:48:28;;;;;;;34.05;19.63;;;3.30;99.90;;;;;;5063743;28;20257;-75
2020/12/02 06:51:16;;;;;;;30.10;18.00;;;3.20;99.90;;;;;;5065622;28;20264;-74
2020/12/02 06:54:01;;;;;;;27.23;17.38;;;3.10;99.90;;;;;;5070512;28;20228;-74
2020/12/02 06:56:47;;;;;;;25.85;15.68;;;3.10;99.90;;;;;;5078987;28;20215;-74
2020/12/02 06:59:32;;;;;;;26.70;16.00;;;3.10;99.90;;;;;;5061485;28;20228;-74
2020/12/02 07:02:39;;;;;;;25.85;16.52;;;3.00;99.90;;;;;;5069498;28;20216;-75
2020/12/02 07:05:41;;;;;;;24.92;16.00;;;3.00;99.90;;;;;;5075844;28;20199;-74
2020/12/02 07:08:28;;;;;;;28.38;17.52;;;3.10;99.90;;;;;;5068656;28;20215;-74
2020/12/02 07:11:16;;;;;;;28.83;16.27;;;3.10;99.90;;;;;;5075933;28;20305;-75
2020/12/02 07:14:15;;;;;;;30.00;17.88;;;3.10;99.90;;;;;;5074041;28;20232;-74
2020/12/02 07:17:02;;;;;;;29.98;18.55;;;3.20;99.90;;;;;;5063186;28;20323;-73
2020/12/02 07:19:48;;;;;;;29.98;17.15;;;3.20;99.90;;;;;;5068840;28;20753;-74
2020/12/02 07:22:37;;;;;;;24.60;16.77;;;3.20;99.90;;;;;;5066956;28;20208;-73
2020/12/02 07:25:24;;;;;;;22.30;13.60;;;3.10;99.90;;;;;;5064516;28;20892;-74
2020/12/02 07:28:15;;;;;;;21.55;13.75;;;3.00;99.90;;;;;;5072072;28;20215;-74
2020/12/02 07:31:12;;;;;;;19.63;11.35;;;3.00;99.90;;;;;;5061845;28;20204;-74
2020/12/02 07:34:03;;;;;;;20.90;12.50;;;2.90;99.90;;;;;;5068323;28;20765;-74
2020/12/02 07:36:55;;;;;;;21.58;13.05;;;2.90;99.90;;;;;;5078308;28;20310;-74
2020/12/02 07:39:49;;;;;;;19.85;12.48;;;2.80;99.90;;;;;;5071370;28;20289;-75
2020/12/02 07:42:39;;;;;;;19.42;12.07;;;2.80;99.90;;;;;;5059731;28;20204;-74
2020/12/02 07:45:28;;;;;;;17.77;11.93;;;2.90;99.90;;;;;;5066397;28;20579;-75
2020/12/02 07:48:19;;;;;;;19.65;12.40;;;2.90;99.90;;;;;;5068448;28;20285;-75
2020/12/02 07:51:10;;;;;;;18.02;12.20;;;2.90;99.90;;;;;;5069049;28;20278;-74
2020/12/02 07:53:59;;;;;;;21.38;13.65;;;2.90;99.90;;;;;;5063783;28;20227;-75
2020/12/02 07:56:47;;;;;;;21.20;12.55;;;3.00;99.90;;;;;;5071425;28;20725;-74
2020/12/02 07:59:34;;;;;;;20.63;14.05;;;3.10;99.90;;;;;;5056684;28;20192;-75
2020/12/02 08:02:22;;;;;;;26.27;14.30;;;3.10;99.90;;;;;;5071553;28;20678;-75
2020/12/02 08:05:24;;;;;;;22.45;14.02;;;3.10;99.90;;;;;;5069890;28;20204;-73
2020/12/02 08:08:09;;;;;;;22.90;14.60;;;3.10;99.90;;;;;;5064905;28;20693;-75
2020/12/02 08:11:04;;;;;;;21.13;12.20;;;3.20;99.90;;;;;;5065323;28;20204;-74
2020/12/02 08:13:52;;;;;;;18.15;12.15;;;3.20;99.90;;;;;;5055803;28;20274;-75
2020/12/02 08:16:42;;;;;;;21.35;12.13;;;3.10;99.90;;;;;;5068546;28;20282;-74
2020/12/02 08:19:32;;;;;;;20.65;12.05;;;3.10;99.90;;;;;;5061720;28;20338;-75
2020/12/02 08:22:27;;;;;;;20.98;13.18;;;3.00;99.90;;;;;;5065725;28;20302;-75
2020/12/02 08:25:21;;;;;;;21.85;13.65;;;2.90;99.90;;;;;;5060703;28;20257;-75
2020/12/02 08:28:15;;;;;;;21.48;12.68;;;2.90;99.90;;;;;;5060163;28;20590;-74
2020/12/02 08:31:02;;;;;;;23.33;13.48;;;2.90;99.90;;;;;;5070584;28;20223;-74
2020/12/02 08:34:14;;;;;;;20.40;12.45;;;3.00;99.90;;;;;;5058004;28;20223;-74
2020/12/02 08:37:26;;;;;;;25.58;15.27;;;3.10;99.90;;;;;;5070350;28;20228;-75
2020/12/02 08:40:39;;;;;;;22.02;15.10;;;3.10;99.90;;;;;;5062622;28;20211;-75
2020/12/02 08:43:33;;;;;;;25.88;14.30;;;3.10;99.90;;;;;;5046843;28;20223;-74
2020/12/02 08:46:22;;;;;;;24.85;14.95;;;3.10;99.90;;;;;;5054516;28;20219;-74
2020/12/02 08:49:08;;;;;;;24.30;14.40;;;3.10;99.90;;;;;;5058212;28;20664;-75
2020/12/02 08:51:53;;;;;;;25.33;13.00;;;3.20;99.90;;;;;;5068766;28;20204;-74
2020/12/02 08:54:38;;;;;;;29.30;13.07;;;3.20;99.90;;;;;;5063210;28;20220;-75
2020/12/02 08:57:23;;;;;;;21.40;12.07;;;3.20;99.90;;;;;;5063252;28;20220;-74
2020/12/02 09:00:09;;;;;;;27.27;16.02;;;3.20;99.90;;;;;;5061681;28;20314;-75
2020/12/02 09:02:55;;;;;;;26.88;15.60;;;3.20;99.90;;;;;;5062718;28;20204;-75
2020/12/02 09:05:43;;;;;;;27.08;15.35;;;3.20;99.90;;;;;;5063341;28;20279;-74
2020/12/02 09:08:28;;;;;;;31.27;17.00;;;3.30;99.90;;;;;;5062552;28;20247;-74
2020/12/02 09:11:18;;;;;;;27.85;17.00;;;3.30;99.90;;;;;;5067470;28;20211;-75
2020/12/02 09:14:05;;;;;;;25.58;16.15;;;3.40;99.90;;;;;;5062773;28;20608;-75
2020/12/02 09:16:51;;;;;;;25.13;16.00;;;3.40;99.90;;;;;;5062806;28;20342;-75
2020/12/02 09:19:36;;;;;;;25.27;15.20;;;3.50;99.90;;;;;;5064762;28;20884;-74
2020/12/02 09:22:21;;;;;;;28.83;17.35;;;3.50;99.90;;;;;;5062119;28;20201;-75
2020/12/02 09:25:06;;;;;;;28.38;17.33;;;3.40;99.90;;;;;;5059496;28;20810;-75
2020/12/02 09:27:51;;;;;;;30.02;18.00;;;3.30;99.90;;;;;;5058803;28;20232;-74
2020/12/02 09:30:36;;;;;;;30.17;16.75;;;3.30;99.90;;;;;;5062602;28;20262;-75
2020/12/02 09:33:23;;;;;;;29.33;17.45;;;3.30;99.90;;;;;;5058918;28;20205;-75
2020/12/02 09:36:08;;;;;;;26.50;15.77;;;3.30;99.90;;;;;;5064244;28;20227;-74
2020/12/02 09:38:55;;;;;;;27.17;16.40;;;3.40;99.90;;;;;;5065955;28;20292;-75
2020/12/02 09:42:00;;;;;;;29.27;17.58;;;3.40;99.90;;;;;;5065409;28;20228;-75
2020/12/02 09:44:58;;;;;;;27.40;15.77;;;3.40;99.90;;;;;;5059883;28;20200;-74
2020/12/02 09:47:45;;;;;;;29.23;16.55;;;3.30;99.90;;;;;;5063270;28;20725;-75
2020/12/02 09:50:31;;;;;;;30.15;18.08;;;3.30;99.90;;;;;;5063917;28;20354;-74
2020/12/02 09:53:18;;;;;;;26.42;15.88;;;3.40;99.90;;;;;;5057908;28;20246;-75
2020/12/02 09:56:06;;;;;;;33.97;18.92;;;3.40;99.90;;;;;;5068689;28;20228;-75
2020/12/02 09:58:51;;;;;;;29.42;17.05;;;3.60;99.90;;;;;;5059186;28;20215;-74
2020/12/02 10:01:50;;;;;;;30.33;17.20;;;3.50;99.90;;;;;;5067608;28;20584;-75
2020/12/02 10:04:57;;;;;;;27.42;15.75;;;3.50;99.90;;;;;;5060826;28;20196;-74
2020/12/02 10:07:59;;;;;;;27.77;15.30;;;3.40;99.90;;;;;;5061918;28;20215;-73
2020/12/02 10:10:57;;;;;;;28.08;17.45;;;3.50;99.90;;;;;;5069819;28;20240;-75
2020/12/02 10:14:04;;;;;;;30.20;18.13;;;3.60;99.90;;;;;;5064912;28;20216;-75
2020/12/02 10:17:00;;;;;;;31.92;17.60;;;3.50;99.90;;;;;;5066967;28;20243;-74
2020/12/02 10:20:09;;;;;;;32.20;18.23;;;3.50;99.90;;;;;;5062012;28;20231;-75
2020/12/02 10:23:22;;;;;;;35.90;18.70;;;3.40;99.90;;;;;;5067032;28;20247;-75
2020/12/02 10:26:40;;;;;;;42.00;21.75;;;3.50;99.90;;;;;;5073982;28;20227;-74
2020/12/02 10:29:33;;;;;;;37.70;21.98;;;3.50;99.90;;;;;;5062925;28;20212;-75
2020/12/02 10:32:32;;;;;;;32.30;18.42;;;3.50;99.90;;;;;;5062127;28;20273;-75
2020/12/02 10:35:18;;;;;;;33.40;19.33;;;3.50;99.90;;;;;;5064113;28;20734;-74
2020/12/02 10:38:08;;;;;;;35.72;19.90;;;3.50;99.90;;;;;;5074939;28;20231;-75
2020/12/02 10:41:15;;;;;;;29.88;16.75;;;3.60;99.90;;;;;;5066757;28;20578;-75
2020/12/02 10:44:18;;;;;;;33.95;18.60;;;3.60;99.90;;;;;;5063875;28;20232;-75
2020/12/02 10:47:20;;;;;;;38.40;18.50;;;3.60;99.90;;;;;;5066815;28;20556;-75
2020/12/02 10:50:08;;;;;;;35.05;18.83;;;3.60;99.90;;;;;;5061383;28;20334;-75
2020/12/02 10:52:55;;;;;;;31.50;17.67;;;3.70;99.90;;;;;;5059037;28;20698;-74
2020/12/02 10:55:41;;;;;;;32.10;19.15;;;3.70;99.90;;;;;;5063440;28;20200;-75
2020/12/02 10:58:29;;;;;;;37.17;20.90;;;3.70;99.90;;;;;;5066362;28;20200;-74
2020/12/02 11:01:14;;;;;;;33.30;18.42;;;3.70;99.90;;;;;;5058276;28;20204;-75
2020/12/02 11:04:00;;;;;;;35.15;20.20;;;3.70;99.90;;;;;;5067225;28;20191;-73
2020/12/02 11:07:12;;;;;;;34.85;19.38;;;3.70;99.90;;;;;;5063637;28;20583;-72
2020/12/02 11:10:02;;;;;;;39.03;19.98;;;3.70;99.90;;;;;;5070006;28;20253;-72
2020/12/02 11:13:09;;;;;;;38.30;20.38;;;3.70;99.90;;;;;;5066650;28;20342;-73
2020/12/02 11:15:59;;;;;;;32.00;19.58;;;3.80;99.90;;;;;;5077695;28;20200;-73
2020/12/02 11:19:06;;;;;;;34.67;19.13;;;3.80;99.90;;;;;;5065753;28;20223;-75
2020/12/02 11:22:05;;;;;;;32.45;17.88;;;3.70;99.90;;;;;;5070350;28;20203;-75
2020/12/02 11:25:03;;;;;;;33.92;18.70;;;3.60;99.90;;;;;;5065808;28;20293;-75
2020/12/02 11:27:49;;;;;;;34.72;19.92;;;3.60;99.90;;;;;;5072813;28;20724;-75
2020/12/02 11:30:39;;;;;;;35.15;21.13;;;3.70;99.90;;;;;;5060866;28;20264;-75
2020/12/02 11:33:43;;;;;;;28.40;17.83;;;3.50;99.90;;;;;;5063007;28;20714;-75
2020/12/02 11:36:48;;;;;;;34.75;19.60;;;3.60;99.90;;;;;;5065288;28;20727;-75
2020/12/02 11:39:43;;;;;;;31.27;18.17;;;3.60;99.90;;;;;;5064195;28;20207;-75
2020/12/02 11:42:35;;;;;;;35.60;20.20;;;3.60;99.90;;;;;;5071283;28;20216;-75
2020/12/02 11:45:25;;;;;;;30.58;19.15;;;3.70;99.90;;;;;;5064179;28;20564;-75
2020/12/02 11:48:20;;;;;;;35.95;21.65;;;3.70;99.90;;;;;;5066804;28;20204;-75
2020/12/02 11:51:16;;;;;;;33.88;20.30;;;3.80;99.90;;;;;;5071521;28;20675;-75
2020/12/02 11:54:04;;;;;;;32.85;18.52;;;3.90;99.90;;;;;;5068230;28;20250;-75
2020/12/02 11:56:52;;;;;;;35.67;19.90;;;3.80;99.90;;;;;;5065465;28;20279;-75
2020/12/02 11:59:37;;;;;;;28.98;18.00;;;3.90;99.90;;;;;;5070946;28;20204;-75
2020/12/02 12:02:36;;;;;;;33.78;19.58;;;3.90;99.90;;;;;;5068113;28;20200;-74
2020/12/02 12:05:27;;;;;;;35.25;19.35;;;3.80;99.90;;;;;;5067493;28;20298;-75
2020/12/02 12:08:22;;;;;;;31.10;19.52;;;3.90;99.90;;;;;;5065605;28;20212;-75
2020/12/02 12:11:14;;;;;;;32.38;19.05;;;3.80;99.90;;;;;;5059283;28;20220;-76
2020/12/02 12:14:09;;;;;;;34.65;19.40;;;3.80;99.90;;;;;;5068268;28;20208;-75
2020/12/02 12:17:02;;;;;;;38.22;19.73;;;3.80;99.90;;;;;;5067362;28;20232;-75
2020/12/02 12:19:54;;;;;;;34.30;18.88;;;3.90;99.90;;;;;;5060910;28;20204;-75
2020/12/02 12:22:44;;;;;;;32.55;18.60;;;3.90;99.90;;;;;;5062934;28;20718;-75
2020/12/02 12:25:32;;;;;;;34.15;19.83;;;3.90;99.90;;;;;;5063596;28;20787;-75
2020/12/02 12:28:21;;;;;;;31.27;18.98;;;3.90;99.90;;;;;;5061169;28;20325;-75
2020/12/02 12:31:14;;;;;;;34.45;21.55;;;4.00;99.90;;;;;;5068791;28;20679;-73
2020/12/02 12:34:05;;;;;;;37.22;20.52;;;4.00;99.90;;;;;;5063987;28;20227;-75
2020/12/02 12:37:03;;;;;;;36.05;20.55;;;3.90;99.90;;;;;;5055490;28;20298;-74
2020/12/02 12:39:56;;;;;;;38.22;21.63;;;3.90;99.90;;;;;;5066881;28;21495;-74
2020/12/02 12:42:42;;;;;;;36.83;19.38;;;3.90;99.90;;;;;;5060954;28;20327;-75
2020/12/02 12:45:33;;;;;;;36.22;21.10;;;3.90;99.90;;;;;;5065586;28;20764;-75
2020/12/02 12:48:21;;;;;;;37.60;20.25;;;3.90;99.90;;;;;;5062350;28;20199;-75
2020/12/02 12:51:08;;;;;;;31.42;17.95;;;4.00;99.90;;;;;;5073142;28;20277;-75
2020/12/02 12:53:53;;;;;;;30.15;17.73;;;4.00;99.90;;;;;;5063383;28;20223;-76
2020/12/02 12:56:40;;;;;;;35.13;20.52;;;3.90;99.90;;;;;;5072183;28;20228;-76
2020/12/02 12:59:26;;;;;;;34.75;18.35;;;3.90;99.90;;;;;;5066906;28;20794;-75
2020/12/02 13:02:21;;;;;;;31.65;19.02;;;3.90;99.90;;;;;;5063832;28;20261;-75
2020/12/02 13:05:10;;;;;;;37.15;20.55;;;3.70;99.90;;;;;;5062254;28;20253;-75
2020/12/02 13:07:58;;;;;;;32.70;18.17;;;3.80;99.90;;;;;;5075486;28;20224;-75
2020/12/02 13:10:54;;;;;;;35.78;20.23;;;3.80;99.90;;;;;;5073387;28;20691;-74
2020/12/02 13:13:54;;;;;;;29.98;18.45;;;3.90;99.90;;;;;;5059560;28;20664;-75
2020/12/02 13:16:44;;;;;;;29.02;17.83;;;3.80;99.90;;;;;;5068968;28;20223;-75
2020/12/02 13:19:39;;;;;;;32.00;18.83;;;3.90;99.90;;;;;;5060389;28;20208;-75
2020/12/02 13:22:41;;;;;;;35.80;20.02;;;3.90;99.90;;;;;;5059300;28;20536;-74
2020/12/02 13:25:32;;;;;;;37.92;22.40;;;3.90;99.90;;;;;;5061059;28;20195;-75
2020/12/02 13:28:23;;;;;;;34.63;18.60;;;3.90;99.90;;;;;;5061167;28;20286;-74
2020/12/02 13:31:15;;;;;;;28.27;18.02;;;3.90;99.90;;;;;;5063374;28;20208;-75
2020/12/02 13:34:02;;;;;;;34.67;20.50;;;3.90;99.90;;;;;;5058330;28;20220;-75
2020/12/02 13:36:47;;;;;;;33.45;19.27;;;4.00;99.90;;;;;;5073317;28;20223;-75
2020/12/02 13:39:32;;;;;;;34.63;20.02;;;3.90;99.90;;;;;;5069249;28;20203;-75
2020/12/02 13:42:17;;;;;;;30.85;17.90;;;3.90;99.90;;;;;;5069891;28;20200;-74
2020/12/02 13:45:10;;;;;;;29.40;18.15;;;3.80;99.90;;;;;;5066370;28;20207;-75
2020/12/02 13:47:58;;;;;;;27.63;17.00;;;3.70;99.90;;;;;;5061285;28;20374;-75
2020/12/02 13:50:46;;;;;;;35.22;17.95;;;3.70;99.90;;;;;;5068716;28;20208;-74
2020/12/02 13:53:35;;;;;;;27.80;17.45;;;3.50;99.90;;;;;;5062536;28;20271;-75
2020/12/02 13:56:27;;;;;;;32.20;18.77;;;3.50;99.90;;;;;;5072599;28;20316;-75
2020/12/02 13:59:22;;;;;;;31.73;17.17;;;3.40;99.90;;;;;;5071400;28;20263;-75
2020/12/02 14:02:21;;;;;;;33.33;19.48;;;3.40;99.90;;;;;;5061878;28;20216;-75
2020/12/02 14:05:19;;;;;;;29.08;18.15;;;3.50;99.90;;;;;;5070936;28;20219;-75
2020/12/02 14:08:04;;;;;;;33.50;19.63;;;3.50;99.90;;;;;;5058613;28;20220;-75
2020/12/02 14:10:49;;;;;;;33.85;18.98;;;3.60;99.90;;;;;;5060991;28;20215;-75
2020/12/02 14:13:36;;;;;;;33.60;19.02;;;3.60;99.90;;;;;;5062124;28;20208;-75
2020/12/02 14:16:22;;;;;;;26.25;16.48;;;3.70;99.90;;;;;;5064999;28;20224;-75
2020/12/02 14:19:08;;;;;;;22.13;15.15;;;3.70;99.90;;;;;;5070283;28;20207;-75
2020/12/02 14:22:05;;;;;;;21.55;14.43;;;3.60;99.90;;;;;;5071723;28;20231;-74
2020/12/02 14:24:52;;;;;;;22.35;14.70;;;3.70;99.90;;;;;;5061171;28;20212;-75
2020/12/02 14:27:40;;;;;;;23.13;15.02;;;3.60;99.90;;;;;;5072926;28;20235;-75
2020/12/02 14:30:28;;;;;;;25.48;15.15;;;3.60;99.90;;;;;;5067680;28;20204;-75
2020/12/02 14:33:16;;;;;;;22.98;15.82;;;3.60;99.90;;;;;;5072403;28;20591;-74